SHMÚ vydal meteorologické výstrahy na Snehové jazyky a záveje Zobraziť výstrahy

SHMÚ vydal hydrologické výstrahy na   Povodeň z topiaceho sa snehu a dažďa Zobraziť výstrahy

METAR

Letisková meteorologická správa METAR

Meteorologické informácie z ďalších profesionálnych meteorologických staníc SHMÚ zobrazené v tvare zodpovedajúcom pravidlám kódovania správ METAR sú uvedené v položke „METSYN

Informácie o správe METAR

25.01.2021 - 14:30 UTC

METAR LZIB 251430Z 32008KT 9999 FEW032 BKN058 04/M03 Q1003 NOSIG=
METAR LZKZ 251430Z 25003KT 5000 -SN BR FEW008 SCT022 OVC030 00/M00
Q0999 NOSIG=
METAR LZPP 251430Z 33006KT 9999 FEW033 BKN055 03/M01 Q1002=
METAR LZTT 251430Z 26013KT 9999 SCT018 OVC050 M02/M04 Q0997 NOSIG=
METAR LZZI 251430Z 35003KT 310V030 5000 -SN FEW005 BKN030 OVC043
01/M03 Q1001=

25.01.2021 - 14:00 UTC

METAR LZIB 251400Z 31004KT 9999 FEW032 BKN060 04/M03 Q1002 NOSIG=
METAR LZKZ 251400Z 24005KT 9999 -SN SCT022 OVC033 00/M00 Q0999
NOSIG=
METAR LZPP 251400Z 33007KT 9999 FEW033 BKN050 03/M01 Q1001=
METAR LZTT 251400Z 26014KT 9999 FEW020 BKN050 OVC080 M02/M04 Q0996
NOSIG=
METAR LZZI 251400Z VRB02KT 9999 BKN030 BKN050 01/M02 Q1001=

Správy METAR z vojenských meteorologických staníc (MIL)
SHMÚ nezodpovedá za ich obsah.

25.01.2021 - 15:00 UTC

METAR LZSL 251500Z 32010KT 9999 SCT042 02/M05 Q1000=

25.01.2021 - 15:00 UTC

METAR 251500Z
METAR LZMC 251500Z 34002KT CAVOK 03/M02 Q1003=

25.01.2021 - 15:00 UTC

METAR 251500Z
METAR LZPW 251500Z VRB02KT 3000 -SN BKN003 OVC022
00/M01 Q0999=

25.01.2021 - 14:00 UTC

METAR 251400Z
METAR LZMC 251400Z 34006KT 9999 SCT024 OVC060 03/M03
Q1002=

25.01.2021 - 14:00 UTC

METAR LZSL 251400Z 30008KT 9999 SCT038 03/M05 Q0999=

25.01.2021 - 14:00 UTC

METAR 251400Z
METAR LZPW 251400Z VRB02KT 3000 -SN BKN003 OVC021
00/M01 Q0998=

skok na menu ↑


skok na začiatok stránky ↑